createdAt,value
2019-02-25T00:00:11.839Z,7.60
2019-02-25T00:02:41.157Z,8.03
2019-02-25T00:05:10.448Z,8.93
2019-02-25T00:07:39.805Z,7.47
2019-02-25T00:10:09.398Z,7.90
2019-02-25T00:12:38.725Z,8.33
2019-02-25T00:15:08.176Z,7.93
2019-02-25T00:17:37.490Z,8.43
2019-02-25T00:20:07.619Z,7.80
2019-02-25T00:22:36.998Z,7.70
2019-02-25T00:25:08.040Z,8.60
2019-02-25T00:27:37.394Z,7.27
2019-02-25T00:30:07.115Z,8.30
2019-02-25T00:32:36.410Z,8.03
2019-02-25T00:35:06.169Z,9.07
2019-02-25T00:37:35.522Z,8.93
2019-02-25T00:40:05.305Z,8.77
2019-02-25T00:42:34.664Z,8.33
2019-02-25T00:45:04.095Z,6.83
2019-02-25T00:47:33.439Z,8.37
2019-02-25T00:50:02.743Z,8.43
2019-02-25T00:52:32.075Z,8.27
2019-02-25T00:55:01.407Z,7.30
2019-02-25T00:57:30.728Z,7.00
2019-02-25T01:00:00.028Z,7.10
2019-02-25T01:02:29.413Z,7.77
2019-02-25T01:04:58.685Z,6.73
2019-02-25T01:07:28.042Z,6.83
2019-02-25T01:09:57.394Z,6.60
2019-02-25T01:12:26.830Z,6.80
2019-02-25T01:14:56.171Z,6.80
2019-02-25T01:17:25.490Z,6.80
2019-02-25T01:19:54.790Z,7.00
2019-02-25T01:22:24.146Z,7.40
2019-02-25T01:24:53.466Z,6.40
2019-02-25T01:27:22.795Z,6.27
2019-02-25T01:29:52.132Z,5.97
2019-02-25T01:32:21.420Z,6.40
2019-02-25T01:34:50.765Z,6.67
2019-02-25T01:37:20.062Z,6.93
2019-02-25T01:39:49.355Z,6.53
2019-02-25T01:42:18.691Z,7.00
2019-02-25T01:44:47.993Z,6.97
2019-02-25T01:47:17.314Z,6.40
2019-02-25T01:49:46.620Z,5.83
2019-02-25T01:52:15.982Z,6.30
2019-02-25T01:54:45.317Z,6.90
2019-02-25T01:57:14.656Z,5.77
2019-02-25T01:59:44.062Z,5.73
2019-02-25T02:02:13.359Z,6.60
2019-02-25T02:04:42.731Z,6.53
2019-02-25T02:07:12.042Z,6.23
2019-02-25T02:09:41.388Z,6.03
2019-02-25T02:12:10.666Z,5.80
2019-02-25T02:14:40.029Z,6.27
2019-02-25T02:17:09.328Z,6.03
2019-02-25T02:19:38.710Z,6.87
2019-02-25T02:22:08.040Z,6.17
2019-02-25T02:24:37.366Z,5.43
2019-02-25T02:27:06.694Z,5.80
2019-02-25T02:29:35.995Z,5.43
2019-02-25T02:32:05.374Z,5.13
2019-02-25T02:34:34.684Z,5.50
2019-02-25T02:37:04.053Z,5.37
2019-02-25T02:39:33.348Z,6.33
2019-02-25T02:42:34.310Z,6.87
2019-02-25T02:45:08.707Z,6.53
2019-02-25T02:48:08.152Z,5.90
2019-02-25T02:50:37.440Z,5.17
2019-02-25T02:53:07.055Z,6.63
2019-02-25T02:55:36.421Z,6.47
2019-02-25T02:58:08.513Z,6.47
2019-02-25T03:00:37.872Z,5.77
2019-02-25T03:03:07.180Z,5.50
2019-02-25T03:05:36.502Z,5.57
2019-02-25T03:08:05.830Z,4.93
2019-02-25T03:10:35.211Z,6.63
2019-02-25T03:13:04.508Z,5.20
2019-02-25T03:15:33.883Z,6.20
2019-02-25T03:18:03.159Z,5.40
2019-02-25T03:20:32.503Z,5.00
2019-02-25T03:23:01.846Z,5.93
2019-02-25T03:25:31.235Z,5.80
2019-02-25T03:28:00.559Z,4.47
2019-02-25T03:30:29.867Z,4.90
2019-02-25T03:32:59.231Z,4.60
2019-02-25T03:35:28.547Z,6.13
2019-02-25T03:37:57.916Z,5.93
2019-02-25T03:40:27.307Z,5.33
2019-02-25T03:42:56.631Z,5.33
2019-02-25T03:45:25.985Z,6.03
2019-02-25T03:47:55.298Z,5.60
2019-02-25T03:50:24.607Z,4.57
2019-02-25T03:52:53.914Z,6.03
2019-02-25T03:55:23.283Z,5.33
2019-02-25T03:57:52.624Z,5.73
2019-02-25T04:00:22.585Z,6.30
2019-02-25T04:02:51.879Z,6.07
2019-02-25T04:05:21.221Z,5.30
2019-02-25T04:07:50.558Z,4.83
2019-02-25T04:10:19.883Z,5.80
2019-02-25T04:12:49.207Z,6.30
2019-02-25T04:15:21.574Z,5.57
2019-02-25T04:17:50.927Z,5.27
2019-02-25T04:20:20.259Z,6.20
2019-02-25T04:22:49.579Z,5.30
2019-02-25T04:25:18.920Z,5.70
2019-02-25T04:27:48.220Z,6.50
2019-02-25T04:30:17.636Z,6.10
2019-02-25T04:32:46.917Z,5.37
2019-02-25T04:35:16.286Z,5.80
2019-02-25T04:37:45.650Z,4.93
2019-02-25T04:40:14.954Z,5.23
2019-02-25T04:42:44.283Z,5.40
2019-02-25T04:45:15.608Z,4.93
2019-02-25T04:47:44.950Z,4.70
2019-02-25T04:50:14.306Z,5.97
2019-02-25T04:52:43.657Z,6.00
2019-02-25T04:55:13.034Z,5.83
2019-02-25T04:57:42.344Z,4.67
2019-02-25T05:00:16.411Z,4.67
2019-02-25T05:02:45.700Z,5.20
2019-02-25T05:05:15.022Z,5.97
2019-02-25T05:07:44.336Z,5.80
2019-02-25T05:10:14.185Z,6.73
2019-02-25T05:12:48.610Z,6.33
2019-02-25T05:15:19.190Z,5.40
2019-02-25T05:17:48.511Z,5.80
2019-02-25T05:20:17.865Z,5.73
2019-02-25T05:22:47.178Z,5.47
2019-02-25T05:25:16.503Z,6.33
2019-02-25T05:27:45.838Z,5.80
2019-02-25T05:30:15.192Z,6.40
2019-02-25T05:32:44.473Z,5.83
2019-02-25T05:35:13.865Z,5.57
2019-02-25T05:37:43.187Z,5.83
2019-02-25T05:40:14.143Z,4.87
2019-02-25T05:42:43.533Z,5.77
2019-02-25T05:45:13.033Z,5.50
2019-02-25T05:47:42.362Z,6.17
2019-02-25T05:50:13.354Z,5.00
2019-02-25T05:52:42.686Z,4.73
2019-02-25T05:55:13.340Z,5.53
2019-02-25T05:57:42.647Z,5.20
2019-02-25T06:00:15.489Z,5.43
2019-02-25T06:02:44.838Z,5.27
2019-02-25T06:05:14.145Z,5.50
2019-02-25T06:07:43.468Z,6.67
2019-02-25T06:10:12.845Z,5.97
2019-02-25T06:12:42.203Z,6.10
2019-02-25T06:15:12.516Z,5.30
2019-02-25T06:17:41.865Z,5.37
2019-02-25T06:20:11.840Z,4.80
2019-02-25T06:22:41.194Z,5.97
2019-02-25T06:25:10.767Z,5.93
2019-02-25T06:27:40.093Z,6.27
2019-02-25T06:30:11.851Z,6.27
2019-02-25T06:32:41.260Z,5.17
2019-02-25T06:35:10.800Z,4.83
2019-02-25T06:37:40.108Z,6.10
2019-02-25T06:40:10.738Z,6.27
2019-02-25T06:42:40.073Z,6.43
2019-02-25T06:45:10.811Z,7.20
2019-02-25T06:47:40.100Z,7.57
2019-02-25T06:50:09.854Z,7.10
2019-02-25T06:52:39.222Z,8.10
2019-02-25T06:55:10.087Z,7.43
2019-02-25T06:57:39.473Z,7.53
2019-02-25T07:00:14.458Z,8.23
2019-02-25T07:02:43.803Z,8.17
2019-02-25T07:05:32.044Z,7.90
2019-02-25T07:08:09.225Z,7.47
2019-02-25T07:11:06.517Z,8.97
2019-02-25T07:14:06.805Z,8.70
2019-02-25T07:16:49.135Z,7.87
2019-02-25T07:19:36.408Z,7.83
2019-02-25T07:22:18.849Z,7.73
2019-02-25T07:25:07.110Z,12.30
2019-02-25T07:28:01.575Z,15.67
2019-02-25T07:30:42.025Z,16.17
2019-02-25T07:33:29.015Z,14.10
2019-02-25T07:36:16.438Z,14.07
2019-02-25T07:39:03.562Z,14.10
2019-02-25T07:41:47.374Z,13.43
2019-02-25T07:44:26.598Z,13.07
2019-02-25T07:47:15.289Z,13.07
2019-02-25T07:50:06.654Z,11.57
2019-02-25T07:53:00.880Z,11.20
2019-02-25T07:55:49.183Z,11.53
2019-02-25T07:58:36.299Z,11.07
2019-02-25T08:01:11.114Z,10.83
2019-02-25T08:03:57.502Z,11.20
2019-02-25T08:06:45.738Z,9.83
2019-02-25T08:09:24.509Z,10.50
2019-02-25T08:12:12.724Z,10.20
2019-02-25T08:15:03.770Z,9.37
2019-02-25T08:18:04.412Z,7.73
2019-02-25T08:20:51.222Z,7.70
2019-02-25T08:23:45.475Z,7.33
2019-02-25T08:26:21.922Z,7.80
2019-02-25T08:29:10.174Z,6.77
2019-02-25T08:32:07.476Z,7.33
2019-02-25T08:34:51.097Z,7.30
2019-02-25T08:38:02.857Z,7.23
2019-02-25T08:41:25.412Z,8.13
2019-02-25T08:44:22.702Z,7.40
2019-02-25T08:47:04.262Z,7.13
2019-02-25T08:49:48.798Z,7.23
2019-02-25T08:52:18.127Z,6.67
2019-02-25T08:54:48.224Z,8.07
2019-02-25T08:57:17.574Z,7.10
2019-02-25T08:59:46.910Z,8.30
2019-02-25T09:02:16.306Z,7.70
2019-02-25T09:04:45.600Z,7.93
2019-02-25T09:07:15.021Z,7.80
2019-02-25T09:09:44.359Z,8.33
2019-02-25T09:12:14.143Z,8.30
2019-02-25T09:14:43.477Z,7.80
2019-02-25T09:17:12.770Z,8.47
2019-02-25T09:19:42.087Z,8.80
2019-02-25T09:22:11.440Z,8.80
2019-02-25T09:24:40.939Z,8.20
2019-02-25T09:27:10.441Z,8.85
2019-02-25T09:29:39.781Z,7.10
2019-02-25T09:32:09.111Z,8.45
2019-02-25T09:34:38.478Z,8.80
2019-02-25T09:37:07.782Z,8.03
2019-02-25T09:39:37.135Z,9.98
2019-02-25T09:42:06.475Z,9.03
2019-02-25T09:44:37.851Z,9.40
2019-02-25T09:47:06.777Z,8.55
2019-02-25T09:49:36.099Z,8.35
2019-02-25T09:52:05.446Z,8.28
2019-02-25T09:54:34.841Z,10.03
2019-02-25T09:57:04.190Z,7.70
2019-02-25T09:59:33.519Z,8.50
2019-02-25T10:02:02.851Z,10.25
2019-02-25T10:04:32.183Z,8.88
2019-02-25T10:07:02.459Z,9.75
2019-02-25T10:09:32.548Z,9.95
2019-02-25T10:12:01.983Z,10.00
2019-02-25T10:14:31.329Z,10.93
2019-02-25T10:17:00.687Z,10.58
2019-02-25T10:19:29.980Z,10.38
2019-02-25T10:21:59.474Z,10.75
2019-02-25T10:24:28.794Z,11.10
2019-02-25T10:26:58.170Z,9.68
2019-02-25T10:29:27.519Z,10.53
2019-02-25T10:31:56.915Z,10.10
2019-02-25T10:34:26.287Z,11.38
2019-02-25T10:36:55.611Z,8.90
2019-02-25T10:39:24.946Z,9.60
2019-02-25T10:41:55.925Z,10.50
2019-02-25T10:44:25.253Z,11.12
2019-02-25T10:46:54.546Z,11.12
2019-02-25T10:49:24.488Z,10.32
2019-02-25T10:51:54.854Z,10.88
2019-02-25T10:54:25.476Z,10.75
2019-02-25T10:56:58.257Z,10.32
2019-02-25T10:59:27.602Z,10.10
2019-02-25T11:01:56.914Z,10.10
2019-02-25T11:04:26.353Z,9.53
2019-02-25T11:06:55.874Z,11.22
2019-02-25T11:09:45.975Z,9.88
2019-02-25T11:12:15.453Z,8.68
2019-02-25T11:14:44.855Z,10.20
2019-02-25T11:17:15.993Z,10.95
2019-02-25T11:19:45.230Z,10.28
2019-02-25T11:22:16.231Z,9.93
2019-02-25T11:24:47.389Z,9.58
2019-02-25T11:27:16.595Z,8.23
2019-02-25T11:29:46.629Z,10.63
2019-02-25T11:32:17.697Z,10.00
2019-02-25T11:34:47.982Z,8.58
2019-02-25T11:37:19.778Z,9.48
2019-02-25T11:39:48.219Z,9.75
2019-02-25T11:42:20.376Z,8.98
2019-02-25T11:44:48.544Z,11.00
2019-02-25T11:47:17.886Z,7.92
2019-02-25T11:49:47.230Z,8.55
2019-02-25T11:52:16.565Z,8.05
2019-02-25T11:54:45.882Z,7.65
2019-02-25T11:57:15.205Z,7.65
2019-02-25T11:59:44.555Z,9.53
2019-02-25T12:02:13.895Z,8.33
2019-02-25T12:04:43.234Z,9.28
2019-02-25T12:07:12.598Z,8.03
2019-02-25T12:09:41.913Z,8.08
2019-02-25T12:12:11.244Z,8.43
2019-02-25T12:14:40.623Z,7.78
2019-02-25T12:17:09.979Z,8.15
2019-02-25T12:19:39.302Z,7.75
2019-02-25T12:22:08.665Z,9.23
2019-02-25T12:24:38.027Z,8.50
2019-02-25T12:27:07.391Z,9.03
2019-02-25T12:29:36.915Z,10.15
2019-02-25T12:32:06.314Z,9.70
2019-02-25T12:34:35.733Z,8.00
2019-02-25T12:37:05.120Z,8.30
2019-02-25T12:39:34.425Z,9.65
2019-02-25T12:42:03.770Z,9.55
2019-02-25T12:44:33.083Z,9.65
2019-02-25T12:47:02.435Z,9.35
2019-02-25T12:49:31.755Z,8.33
2019-02-25T12:52:01.294Z,8.80
2019-02-25T12:54:31.021Z,8.53
2019-02-25T12:57:00.329Z,8.53
2019-02-25T12:59:29.699Z,9.15
2019-02-25T13:01:59.090Z,9.05
2019-02-25T13:04:28.398Z,8.80
2019-02-25T13:06:57.748Z,8.28
2019-02-25T13:09:27.058Z,7.45
2019-02-25T13:11:56.365Z,7.62
2019-02-25T13:14:25.708Z,6.87
2019-02-25T13:16:55.019Z,7.70
2019-02-25T13:19:24.370Z,7.60
2019-02-25T13:21:53.683Z,8.50
2019-02-25T13:24:23.018Z,7.65
2019-02-25T13:26:52.326Z,7.20
2019-02-25T13:29:21.644Z,7.62
2019-02-25T13:31:50.924Z,7.78
2019-02-25T13:34:20.339Z,7.60
2019-02-25T13:36:49.658Z,7.08
2019-02-25T13:39:19.027Z,7.12
2019-02-25T13:41:48.371Z,7.53
2019-02-25T13:44:17.706Z,7.47
2019-02-25T13:46:47.044Z,6.47
2019-02-25T13:49:16.362Z,7.37
2019-02-25T13:51:45.713Z,6.45
2019-02-25T13:54:15.019Z,7.03
2019-02-25T13:56:44.333Z,6.87
2019-02-25T13:59:13.898Z,8.03
2019-02-25T14:01:43.262Z,7.67
2019-02-25T14:04:12.579Z,7.17
2019-02-25T14:06:41.939Z,7.33
2019-02-25T14:09:11.249Z,8.08
2019-02-25T14:11:40.590Z,6.62
2019-02-25T14:14:10.304Z,7.72
2019-02-25T14:16:39.667Z,7.45
2019-02-25T14:19:09.019Z,8.03
2019-02-25T14:21:38.371Z,6.00
2019-02-25T14:24:07.696Z,6.70
2019-02-25T14:26:37.420Z,5.92
2019-02-25T14:29:07.456Z,5.20
2019-02-25T14:31:36.763Z,6.03
2019-02-25T14:34:06.140Z,4.75
2019-02-25T14:36:35.456Z,5.28
2019-02-25T14:39:14.939Z,4.95
2019-02-25T14:41:44.338Z,5.67
2019-02-25T14:44:13.627Z,5.90
2019-02-25T14:46:42.973Z,5.42
2019-02-25T14:49:12.284Z,5.35
2019-02-25T14:51:41.614Z,5.25
2019-02-25T14:54:10.963Z,5.08
2019-02-25T14:56:40.262Z,4.62
2019-02-25T14:59:14.573Z,5.05
2019-02-25T15:01:40.654Z,5.78
2019-02-25T15:04:09.970Z,5.87
2019-02-25T15:06:39.377Z,5.28
2019-02-25T15:09:11.908Z,5.45
2019-02-25T15:11:39.979Z,5.28
2019-02-25T15:14:10.737Z,6.00
2019-02-25T15:16:40.327Z,5.40
2019-02-25T15:19:09.636Z,6.30
2019-02-25T15:21:39.005Z,5.35
2019-02-25T15:24:10.102Z,5.50
2019-02-25T15:26:43.039Z,5.50
2019-02-25T15:29:10.292Z,5.62
2019-02-25T15:31:39.658Z,5.80
2019-02-25T15:34:10.825Z,5.62
2019-02-25T15:36:39.981Z,5.70
2019-02-25T15:39:11.291Z,6.05
2019-02-25T15:41:43.950Z,6.78
2019-02-25T15:44:13.091Z,6.30
2019-02-25T15:46:42.566Z,6.30
2019-02-25T15:49:12.997Z,6.12
2019-02-25T15:51:45.178Z,5.65
2019-02-25T15:54:14.407Z,6.37
2019-02-25T15:56:44.158Z,6.72
2019-02-25T15:59:13.692Z,6.12
2019-02-25T16:01:44.124Z,6.37
2019-02-25T16:04:13.678Z,6.30
2019-02-25T16:06:43.205Z,5.70
2019-02-25T16:09:17.094Z,7.03
2019-02-25T16:11:45.686Z,6.45
2019-02-25T16:14:16.243Z,6.20
2019-02-25T16:16:45.779Z,6.05
2019-02-25T16:19:17.037Z,6.53
2019-02-25T16:21:46.740Z,6.15
2019-02-25T16:24:16.866Z,6.08
2019-02-25T16:26:48.739Z,6.47
2019-02-25T16:29:18.510Z,7.00
2019-02-25T16:31:49.003Z,6.17
2019-02-25T16:34:20.646Z,7.00
2019-02-25T16:36:51.991Z,6.62
2019-02-25T16:39:21.396Z,6.62
2019-02-25T16:41:50.939Z,5.95
2019-02-25T16:44:20.455Z,6.67
2019-02-25T16:46:50.762Z,6.33
2019-02-25T16:49:20.504Z,6.75
2019-02-25T16:51:51.025Z,5.95
2019-02-25T16:54:22.875Z,5.60
2019-02-25T16:56:52.369Z,6.62
2019-02-25T16:59:23.033Z,5.72
2019-02-25T17:01:55.785Z,5.72
2019-02-25T17:04:25.466Z,5.95
2019-02-25T17:06:56.179Z,6.97
2019-02-25T17:09:28.887Z,6.50
2019-02-25T17:12:00.008Z,6.45
2019-02-25T17:14:29.688Z,6.70
2019-02-25T17:16:59.224Z,6.30
2019-02-25T17:19:28.783Z,6.10
2019-02-25T17:21:58.297Z,6.65
2019-02-25T17:24:28.197Z,5.87
2019-02-25T17:27:00.076Z,6.35
2019-02-25T17:29:31.893Z,6.55
2019-02-25T17:32:03.137Z,6.72
2019-02-25T17:34:33.040Z,6.03
2019-02-25T17:37:03.694Z,6.67
2019-02-25T17:39:33.843Z,8.63
2019-02-25T17:42:06.124Z,7.58
2019-02-25T17:44:36.650Z,7.33
2019-02-25T17:47:08.699Z,7.25
2019-02-25T17:49:38.023Z,8.13
2019-02-25T17:52:08.527Z,7.83
2019-02-25T17:54:39.885Z,8.08
2019-02-25T17:57:09.804Z,8.33
2019-02-25T17:59:40.415Z,7.60
2019-02-25T18:02:10.474Z,7.03
2019-02-25T18:04:40.560Z,7.50
2019-02-25T18:07:10.046Z,8.53
2019-02-25T18:09:40.142Z,8.03
2019-02-25T18:12:10.826Z,8.35
2019-02-25T18:14:41.507Z,7.90
2019-02-25T18:17:14.823Z,8.17
2019-02-25T18:19:45.452Z,8.25
2019-02-25T18:22:16.717Z,8.13
2019-02-25T18:24:45.000Z,9.30
2019-02-25T18:27:16.022Z,8.35
2019-02-25T18:29:46.276Z,8.03
2019-02-25T18:32:16.650Z,7.77
2019-02-25T18:34:46.494Z,7.83
2019-02-25T18:37:17.681Z,8.10
2019-02-25T18:39:47.960Z,8.37
2019-02-25T18:42:20.119Z,7.90
2019-02-25T18:44:51.326Z,8.07
2019-02-25T18:47:22.882Z,8.30
2019-02-25T18:49:53.943Z,8.20
2019-02-25T18:52:23.512Z,8.48
2019-02-25T18:54:53.066Z,9.00
2019-02-25T18:57:23.134Z,8.00
2019-02-25T18:59:54.762Z,8.30
2019-02-25T19:02:25.026Z,8.13
2019-02-25T19:04:54.529Z,7.80
2019-02-25T19:07:25.641Z,8.53
2019-02-25T19:09:56.051Z,7.83
2019-02-25T19:12:26.341Z,8.07
2019-02-25T19:14:57.576Z,7.17
2019-02-25T19:17:27.526Z,8.23
2019-02-25T19:19:58.280Z,8.07
2019-02-25T19:22:29.401Z,7.50
2019-02-25T19:24:58.898Z,7.50
2019-02-25T19:27:29.567Z,9.00
2019-02-25T19:30:03.072Z,8.07
2019-02-25T19:32:32.803Z,7.60
2019-02-25T19:35:04.756Z,6.90
2019-02-25T19:37:37.573Z,8.17
2019-02-25T19:40:11.842Z,8.27
2019-02-25T19:42:36.738Z,7.67
2019-02-25T19:45:08.065Z,8.27
2019-02-25T19:47:40.336Z,8.93
2019-02-25T19:50:11.696Z,8.13
2019-02-25T19:52:41.953Z,7.90
2019-02-25T19:55:13.016Z,7.90
2019-02-25T19:57:43.684Z,8.30
2019-02-25T20:00:17.894Z,8.47
2019-02-25T20:02:48.025Z,8.50
2019-02-25T20:05:19.378Z,8.37
2019-02-25T20:07:48.822Z,8.43
2019-02-25T20:10:18.319Z,7.03
2019-02-25T20:12:50.103Z,8.70
2019-02-25T20:15:20.846Z,8.30
2019-02-25T20:17:52.822Z,7.53
2019-02-25T20:20:22.259Z,7.40
2019-02-25T20:22:51.779Z,7.77
2019-02-25T20:25:23.729Z,7.80
2019-02-25T20:27:54.971Z,7.63
2019-02-25T20:30:26.400Z,7.83
2019-02-25T20:32:55.354Z,6.87
2019-02-25T20:35:26.806Z,7.27
2019-02-25T20:37:58.018Z,7.67
2019-02-25T20:40:28.737Z,7.63
2019-02-25T20:43:00.408Z,7.87
2019-02-25T20:45:31.027Z,8.43
2019-02-25T20:48:01.939Z,7.50
2019-02-25T20:50:31.629Z,9.13
2019-02-25T20:53:03.667Z,7.77
2019-02-25T20:55:34.514Z,8.67
2019-02-25T20:58:03.521Z,9.23
2019-02-25T21:00:36.894Z,8.10
2019-02-25T21:03:04.201Z,7.50
2019-02-25T21:05:33.807Z,7.37
2019-02-25T21:08:03.352Z,7.03
2019-02-25T21:10:35.550Z,8.03
2019-02-25T21:13:04.329Z,7.90
2019-02-25T21:15:35.848Z,7.80
2019-02-25T21:18:07.526Z,7.60
2019-02-25T21:20:36.310Z,8.93
2019-02-25T21:23:07.752Z,8.63
2019-02-25T21:25:38.648Z,8.30
2019-02-25T21:28:09.106Z,8.90
2019-02-25T21:30:41.402Z,8.43
2019-02-25T21:33:13.290Z,8.83
2019-02-25T21:35:41.933Z,7.90
2019-02-25T21:38:11.570Z,8.13
2019-02-25T21:40:41.032Z,8.37
2019-02-25T21:43:14.384Z,8.03
2019-02-25T21:45:41.643Z,7.87
2019-02-25T21:48:11.176Z,9.13
2019-02-25T21:50:42.597Z,8.23
2019-02-25T21:53:13.873Z,8.70
2019-02-25T21:55:43.188Z,8.53
2019-02-25T21:58:12.646Z,7.97
2019-02-25T22:00:42.139Z,9.33
2019-02-25T22:03:13.190Z,8.37
2019-02-25T22:05:42.814Z,9.03
2019-02-25T22:08:12.294Z,9.60
2019-02-25T22:10:43.582Z,9.83
2019-02-25T22:13:14.177Z,8.57
2019-02-25T22:15:45.255Z,10.10
2019-02-25T22:18:14.816Z,9.17
2019-02-25T22:20:45.277Z,8.90
2019-02-25T22:23:15.461Z,9.87
2019-02-25T22:25:44.970Z,9.03
2019-02-25T22:28:14.455Z,10.30
2019-02-25T22:30:45.186Z,8.37
2019-02-25T22:33:26.840Z,8.93
2019-02-25T22:35:48.876Z,8.07
2019-02-25T22:38:18.009Z,10.17
2019-02-25T22:40:47.611Z,8.70
2019-02-25T22:43:18.685Z,9.20
2019-02-25T22:45:48.306Z,10.27
2019-02-25T22:48:19.120Z,9.87
2019-02-25T22:50:51.266Z,10.10
2019-02-25T22:53:20.116Z,9.97
2019-02-25T22:55:50.387Z,9.23
2019-02-25T22:58:20.821Z,9.60
2019-02-25T23:00:51.648Z,10.07
2019-02-25T23:03:23.205Z,10.47
2019-02-25T23:05:53.260Z,9.97
2019-02-25T23:08:25.733Z,8.80
2019-02-25T23:10:54.650Z,8.30
2019-02-25T23:13:25.053Z,8.47
2019-02-25T23:15:55.427Z,9.83
2019-02-25T23:18:27.368Z,9.13
2019-02-25T23:20:59.762Z,9.87
2019-02-25T23:23:28.710Z,9.23
2019-02-25T23:25:58.592Z,9.83
2019-02-25T23:28:30.196Z,9.87
2019-02-25T23:30:59.195Z,9.17
2019-02-25T23:33:28.669Z,9.33
2019-02-25T23:35:58.165Z,9.27
2019-02-25T23:38:27.649Z,8.60
2019-02-25T23:40:57.197Z,10.07
2019-02-25T23:43:26.698Z,9.00
2019-02-25T23:45:57.931Z,8.97
2019-02-25T23:48:32.798Z,8.60
2019-02-25T23:50:59.596Z,10.47
2019-02-25T23:53:31.084Z,9.17
2019-02-25T23:56:00.290Z,9.53
2019-02-25T23:58:29.815Z,9.20
